Nivaria — ECHI — position and weather

sailwx.info

Track history (hours):
 
Tides and Currents Weather Stations Pressure Air Temp Water Temp Dewpoint Dewpoint Depression Visibility Wind Speed Wind Dir Waves Ship Positions

Nivaria

Last reported at 2018-May-20 17:30 UTC. Time now 2018-May-20 17:52 UTC.
Position N 28°58' W 013°32'.

Length 97 m; draft 6.5 m.

Type: Ship. MMSI: 224296000.

Date/timePositionNaut miles runAvg speedWind from/ knotsBaromVisibWave heightAir tempDewpointWater temp
2018-May-20 17:30N 28°58' W 013°32'0 0.0
2018-May-20 16:59N 28°58' W 013°32'0 0.0
2018-May-20 16:30N 28°58' W 013°32'0 0.0
2018-May-20 16:00N 28°58' W 013°32'0 0.0
2018-May-20 15:30N 28°58' W 013°32'0 0.0
2018-May-20 15:00N 28°58' W 013°32'0 0.0
2018-May-20 14:30N 28°58' W 013°32'0 0.0
2018-May-20 13:58N 28°58' W 013°32'0 0.0
2018-May-20 13:30N 28°58' W 013°32'0 0.0
2018-May-20 13:00N 28°58' W 013°32'0 0.0
2018-May-20 12:28N 28°58' W 013°32'0 0.0
2018-May-20 12:00N 28°58' W 013°32'0 0.0
2018-May-20 11:30N 28°58' W 013°32'0 0.0
2018-May-20 11:00N 28°58' W 013°32'0 0.0
2018-May-20 10:30N 28°58' W 013°32'0 0.0
2018-May-20 10:00N 28°58' W 013°32'0 0.0
2018-May-20 09:30N 28°58' W 013°32'0 0.0
2018-May-20 08:58N 28°58' W 013°32'0 0.0
2018-May-20 08:30N 28°58' W 013°32'0 0.0
2018-May-20 08:00N 28°58' W 013°32'0 0.0
2018-May-20 07:29N 28°58' W 013°32'0 0.0
2018-May-20 07:00N 28°58' W 013°32'0 0.0
2018-May-20 06:29N 28°58' W 013°32'0 0.0
2018-May-20 06:00N 28°58' W 013°32'0 0.0
2018-May-20 05:28N 28°58' W 013°32'0 0.0
2018-May-20 05:00N 28°58' W 013°32'0 0.0
2018-May-20 04:30N 28°58' W 013°32'0 0.0
2018-May-20 04:00N 28°58' W 013°32'0 0.0
2018-May-20 03:30N 28°58' W 013°32'0 0.0
2018-May-20 02:59N 28°58' W 013°32'0 0.0
2018-May-20 02:27N 28°58' W 013°32'0 0.0
2018-May-20 02:00N 28°58' W 013°32'0 0.0
2018-May-20 01:30N 28°58' W 013°32'0 0.0
2018-May-20 00:58N 28°58' W 013°32'0 0.0
2018-May-20 00:30N 28°58' W 013°32'0 0.0
2018-May-20 00:00N 28°58' W 013°32'0 0.0
2018-May-19 23:30N 28°58' W 013°32'0 0.0
2018-May-19 23:00N 28°58' W 013°32'0 0.0
2018-May-19 22:30N 28°58' W 013°32'0 0.0
2018-May-19 22:00N 28°58' W 013°32'0 0.0
2018-May-19 21:28N 28°58' W 013°32'0 0.0
2018-May-19 21:00N 28°58' W 013°32'0 0.0
2018-May-19 20:30N 28°58' W 013°32'0 0.0
2018-May-19 20:00N 28°58' W 013°32'0 0.0
2018-May-19 19:22N 28°58' W 013°32'0 0.0
2018-May-19 19:00N 28°58' W 013°32'0 0.0
2018-May-19 18:30N 28°58' W 013°32'0 0.1
2018-May-19 18:00N 28°58' W 013°32'2 4.6
2018-May-19 17:30N 28°56' W 013°33'510.5
2018-May-19 17:00N 28°53' W 013°38'610.9
2018-May-19 16:30N 28°50' W 013°43'71 9.9
2018-May-19 09:22N 28°42' W 015°03'4 9.8
2018-May-19 09:00N 28°42' W 015°07'7 9.9
2018-May-19 08:20N 28°41' W 015°15'3 9.8
2018-May-19 08:00N 28°41' W 015°18'5 9.7
2018-May-19 07:30N 28°40' W 015°24'5 9.8
2018-May-19 06:59N 28°40' W 015°30'23 9.4
2018-May-19 04:32N 28°35' W 015°55'1 9.5
2018-May-19 04:24N 28°34' W 015°57'4 9.4
2018-May-19 04:00N 28°32' W 016°00'5 9.5
2018-May-19 03:31N 28°30' W 016°05'5 9.9
2018-May-19 03:00N 28°28' W 016°10'510.2
2018-May-19 02:30N 28°27' W 016°16'0 0.2
2018-May-19 01:42N 28°27' W 016°16'0 0.0
2018-May-19 01:30N 28°27' W 016°16'0 0.0
2018-May-19 01:00N 28°27' W 016°16'0 0.0
2018-May-19 00:30N 28°27' W 016°16'0 0.0
2018-May-18 23:54N 28°27' W 016°16'0 0.0
2018-May-18 23:30N 28°27' W 016°16'0 0.0
2018-May-18 23:00N 28°27' W 016°16'0 0.0
2018-May-18 22:30N 28°27' W 016°16'0 0.0
2018-May-18 22:00N 28°27' W 016°16'0 0.0
2018-May-18 21:00N 28°27' W 016°16'0 0.0
2018-May-18 20:30N 28°27' W 016°16'0 0.0
2018-May-18 14:18N 28°27' W 016°16'0 0.1
2018-May-18 14:01N 28°27' W 016°16'1 3.0
2018-May-18 13:30N 28°27' W 016°14'2 3.5
2018-May-18 13:00N 28°28' W 016°13'1 2.3
2018-May-18 12:30N 28°29' W 016°11'5 9.6
2018-May-18 12:00N 28°31' W 016°07'25 0.5
2018-May-16 12:10N 28°10' W 016°22'210.6
2018-May-16 12:00N 28°11' W 016°21'510.7
2018-May-16 11:30N 28°16' W 016°19'510.8
2018-May-16 11:00N 28°21' W 016°17'510.6
2018-May-16 10:30N 28°26' W 016°14'3 6.8
2018-May-16 10:00N 28°29' W 016°13'0 0.1
2018-May-16 09:30N 28°29' W 016°13'0 0.0
2018-May-16 09:00N 28°29' W 016°13'0 0.0
2018-May-16 08:30N 28°29' W 016°13'0 0.1
2018-May-16 08:00N 28°29' W 016°13'0 0.1
2018-May-16 07:30N 28°29' W 016°13'0 0.0
2018-May-16 07:00N 28°29' W 016°13'0 0.0
2018-May-16 06:30N 28°29' W 016°13'0 0.0
2018-May-16 06:00N 28°29' W 016°13'0 0.0
2018-May-16 05:30N 28°29' W 016°13'0 0.0
2018-May-16 05:00N 28°29' W 016°13'0 0.0
2018-May-16 04:30N 28°29' W 016°13'0 0.0
2018-May-16 04:00N 28°29' W 016°13'0 0.1
2018-May-16 03:30N 28°29' W 016°13'0 0.0
2018-May-16 03:00N 28°29' W 016°13'0 0.0
2018-May-16 02:30N 28°29' W 016°13'0 0.0
2018-May-16 02:00N 28°29' W 016°13'0 0.1
2018-May-16 01:30N 28°29' W 016°13'0 0.1
2018-May-16 01:00N 28°29' W 016°13'0 0.0
2018-May-16 00:30N 28°29' W 016°13'0 0.0
2018-May-16 00:00N 28°29' W 016°13'0 0.0
2018-May-15 23:30N 28°29' W 016°13'0 0.1
2018-May-15 23:00N 28°29' W 016°13'0 0.1
2018-May-15 22:27N 28°29' W 016°13'0 0.1
2018-May-15 22:00N 28°29' W 016°13'0 0.0
2018-May-15 21:30N 28°29' W 016°13'0 0.0
2018-May-15 21:00N 28°29' W 016°13'0 0.0
2018-May-15 20:30N 28°29' W 016°13'0 0.0
2018-May-15 20:00N 28°29' W 016°13'0 0.0
2018-May-15 19:30N 28°29' W 016°13'0 0.0
2018-May-15 19:00N 28°29' W 016°13'0 0.0
2018-May-15 18:30N 28°29' W 016°13'0 0.0
2018-May-15 18:00N 28°29' W 016°13'0 0.0
2018-May-15 17:30N 28°29' W 016°13'0 0.0
2018-May-15 17:00N 28°29' W 016°13'0 0.0
2018-May-15 16:30N 28°29' W 016°13'0 0.0
2018-May-15 16:00N 28°29' W 016°13'0 0.0
2018-May-15 15:30N 28°29' W 016°13'0 0.0
2018-May-15 15:00N 28°29' W 016°13'0 0.0
2018-May-15 14:30N 28°29' W 016°13'0 0.0
2018-May-15 14:00N 28°29' W 016°13'0 0.0
2018-May-15 13:30N 28°29' W 016°13'0 0.0
2018-May-15 13:00N 28°29' W 016°13'0 0.1
2018-May-15 12:30N 28°29' W 016°13'0 0.0
2018-May-15 12:00N 28°29' W 016°13'0 0.0
2018-May-15 11:30N 28°29' W 016°13'0 0.0
2018-May-15 11:00N 28°29' W 016°13'0 0.0
2018-May-15 10:30N 28°29' W 016°13'0 0.0
2018-May-15 10:00N 28°29' W 016°13'0 0.1
2018-May-15 09:30N 28°29' W 016°13'0 0.0
2018-May-15 09:00N 28°29' W 016°13'0 0.0
2018-May-15 08:30N 28°29' W 016°13'0 0.0
2018-May-15 08:00N 28°29' W 016°13'0 0.0
2018-May-15 07:30N 28°29' W 016°13'0 0.0
2018-May-15 07:00N 28°29' W 016°13'0 0.0
2018-May-14 12:36N 28°29' W 016°13'0 0.1
2018-May-14 12:30N 28°29' W 016°13'0 0.0
2018-May-14 11:54N 28°29' W 016°13'0 0.1
2018-May-14 11:30N 28°29' W 016°13'0 0.0
2018-May-14 10:57N 28°29' W 016°13'0 0.0
2018-May-14 10:30N 28°29' W 016°13'0 0.0
2018-May-14 10:00N 28°29' W 016°13'0 0.0
2018-May-14 09:30N 28°29' W 016°13'0 0.0
2018-May-14 09:00N 28°29' W 016°13'0 0.0
2018-May-14 08:30N 28°29' W 016°13'0 0.0
2018-May-14 08:00N 28°29' W 016°13'0 0.0
2018-May-14 07:30N 28°29' W 016°13'0 0.0
2018-May-14 07:00N 28°29' W 016°13'0 0.0
2018-May-14 06:30N 28°29' W 016°13'0 0.0
2018-May-14 06:00N 28°29' W 016°13'0 0.0
2018-May-14 05:30N 28°29' W 016°13'0 0.1
2018-May-14 05:00N 28°29' W 016°13'0 0.0
2018-May-14 04:30N 28°29' W 016°13'0 0.0
2018-May-14 04:00N 28°29' W 016°13'0 0.1
2018-May-14 03:30N 28°29' W 016°13'0 0.0
2018-May-14 03:00N 28°29' W 016°13'0 0.0
2018-May-14 02:30N 28°29' W 016°13'0 0.1
2018-May-14 02:00N 28°29' W 016°13'0 0.0
2018-May-14 01:30N 28°29' W 016°13'0 0.0
2018-May-14 01:00N 28°29' W 016°13'0 0.0
2018-May-14 00:30N 28°29' W 016°13'0 0.0
2018-May-14 00:00N 28°29' W 016°13'0 0.1
2018-May-13 23:30N 28°29' W 016°13'0 0.0
2018-May-13 23:00N 28°29' W 016°13'0 0.0
2018-May-13 22:30N 28°29' W 016°13'0 0.0
2018-May-13 22:00N 28°29' W 016°13'0 0.0
2018-May-13 21:30N 28°29' W 016°13'0 0.0
2018-May-13 21:00N 28°29' W 016°13'0 0.0
2018-May-13 20:30N 28°29' W 016°13'0 0.0
2018-May-13 20:00N 28°29' W 016°13'0 0.0
2018-May-13 19:30N 28°29' W 016°13'0 0.0
2018-May-13 19:00N 28°29' W 016°13'0 0.0
2018-May-13 18:30N 28°29' W 016°13'0 0.1
2018-May-13 18:00N 28°29' W 016°13'0 0.0
2018-May-13 17:30N 28°29' W 016°13'0 0.0
2018-May-13 17:00N 28°29' W 016°13'0 0.0
2018-May-13 16:30N 28°29' W 016°13'0 0.0
2018-May-13 16:00N 28°29' W 016°13'0 0.0
2018-May-13 15:30N 28°29' W 016°13'0 0.0
2018-May-13 15:00N 28°29' W 016°13'0 0.0
2018-May-13 14:30N 28°29' W 016°13'0 0.0
2018-May-13 14:00N 28°29' W 016°13'0 0.1
2018-May-13 13:30N 28°29' W 016°13'0 0.1
2018-May-13 13:00N 28°29' W 016°13'0 0.1
2018-May-13 12:30N 28°29' W 016°13'0 0.0
2018-May-13 12:00N 28°29' W 016°13'0 0.0
2018-May-13 11:30N 28°29' W 016°13'0 0.0
2018-May-13 11:00N 28°29' W 016°13'0 0.0
2018-May-13 10:30N 28°29' W 016°13'0 0.0
2018-May-13 10:00N 28°29' W 016°13'0 0.0
2018-May-13 09:30N 28°29' W 016°13'0 0.1
2018-May-13 09:00N 28°29' W 016°13'0 0.1
2018-May-13 08:30N 28°29' W 016°13'0 0.0
2018-May-13 08:00N 28°29' W 016°13'0 0.0
2018-May-13 07:30N 28°29' W 016°13'0 0.1
2018-May-13 07:00N 28°29' W 016°13'0 0.0
2018-May-13 06:30N 28°29' W 016°13'0 0.0
2018-May-13 06:00N 28°29' W 016°13'0 0.1
2018-May-13 05:30N 28°29' W 016°13'0 0.7
2018-May-13 05:00N 28°29' W 016°13'0 0.0
2018-May-13 04:30N 28°29' W 016°13'0 0.0
2018-May-13 04:00N 28°29' W 016°13'0 0.0
2018-May-13 03:30N 28°29' W 016°13'0 0.0
2018-May-13 03:00N 28°29' W 016°13'0 0.0
2018-May-13 02:30N 28°29' W 016°13'0 0.0
2018-May-13 02:00N 28°29' W 016°13'0 0.0
2018-May-13 01:30N 28°29' W 016°13'0 0.0
2018-May-13 01:00N 28°29' W 016°13'0 0.0
2018-May-13 00:30N 28°29' W 016°13'0 0.0
2018-May-13 00:00N 28°29' W 016°13'0 0.0
2018-May-12 23:30N 28°29' W 016°13'0 0.0
2018-May-12 23:00N 28°29' W 016°13'0 0.0
2018-May-12 22:30N 28°29' W 016°13'0 0.0
2018-May-12 22:00N 28°29' W 016°13'0 0.0
2018-May-12 21:30N 28°29' W 016°13'0 0.0
2018-May-12 21:00N 28°29' W 016°13'0 0.0
2018-May-12 20:30N 28°29' W 016°13'0 0.1
2018-May-12 20:00N 28°29' W 016°13'3 6.3
2018-May-12 19:30N 28°27' W 016°16'0 0.2
2018-May-12 17:26N 28°27' W 016°16'0 0.0
2018-May-12 07:44N 28°27' W 016°16'0 0.0
2018-May-12 07:18N 28°27' W 016°16'0 0.8
2018-May-12 07:00N 28°27' W 016°16'3 6.8
2018-May-12 06:30N 28°29' W 016°12'510.4
2018-May-12 06:00N 28°31' W 016°07'  
Track history (hours):
 
Tides and Currents Weather Stations Pressure Air Temp Water Temp Dewpoint Dewpoint Depression Visibility Wind Speed Wind Dir Waves Ship Positions

Nivaria

Last reported at 2018-May-20 17:30 UTC. Time now 2018-May-20 17:52 UTC.
Position N 28°58' W 013°32'.

Length 97 m; draft 6.5 m.

Type: Ship. MMSI: 224296000.

Date/timePositionNaut miles runAvg speedWind from/ knotsBaromVisibWave heightAir tempDewpointWater temp
2018-May-20 17:30N 28°58' W 013°32'0 0.0
2018-May-20 16:59N 28°58' W 013°32'0 0.0
2018-May-20 16:30N 28°58' W 013°32'0 0.0
2018-May-20 16:00N 28°58' W 013°32'0 0.0
2018-May-20 15:30N 28°58' W 013°32'0 0.0
2018-May-20 15:00N 28°58' W 013°32'0 0.0
2018-May-20 14:30N 28°58' W 013°32'0 0.0
2018-May-20 13:58N 28°58' W 013°32'0 0.0
2018-May-20 13:30N 28°58' W 013°32'0 0.0
2018-May-20 13:00N 28°58' W 013°32'0 0.0
2018-May-20 12:28N 28°58' W 013°32'0 0.0
2018-May-20 12:00N 28°58' W 013°32'0 0.0
2018-May-20 11:30N 28°58' W 013°32'0 0.0
2018-May-20 11:00N 28°58' W 013°32'0 0.0
2018-May-20 10:30N 28°58' W 013°32'0 0.0
2018-May-20 10:00N 28°58' W 013°32'0 0.0
2018-May-20 09:30N 28°58' W 013°32'0 0.0
2018-May-20 08:58N 28°58' W 013°32'0 0.0
2018-May-20 08:30N 28°58' W 013°32'0 0.0
2018-May-20 08:00N 28°58' W 013°32'0 0.0
2018-May-20 07:29N 28°58' W 013°32'0 0.0
2018-May-20 07:00N 28°58' W 013°32'0 0.0
2018-May-20 06:29N 28°58' W 013°32'0 0.0
2018-May-20 06:00N 28°58' W 013°32'0 0.0
2018-May-20 05:28N 28°58' W 013°32'0 0.0
2018-May-20 05:00N 28°58' W 013°32'0 0.0
2018-May-20 04:30N 28°58' W 013°32'0 0.0
2018-May-20 04:00N 28°58' W 013°32'0 0.0
2018-May-20 03:30N 28°58' W 013°32'0 0.0
2018-May-20 02:59N 28°58' W 013°32'0 0.0
2018-May-20 02:27N 28°58' W 013°32'0 0.0
2018-May-20 02:00N 28°58' W 013°32'0 0.0
2018-May-20 01:30N 28°58' W 013°32'0 0.0
2018-May-20 00:58N 28°58' W 013°32'0 0.0
2018-May-20 00:30N 28°58' W 013°32'0 0.0
2018-May-20 00:00N 28°58' W 013°32'0 0.0
2018-May-19 23:30N 28°58' W 013°32'0 0.0
2018-May-19 23:00N 28°58' W 013°32'0 0.0
2018-May-19 22:30N 28°58' W 013°32'0 0.0
2018-May-19 22:00N 28°58' W 013°32'0 0.0
2018-May-19 21:28N 28°58' W 013°32'0 0.0
2018-May-19 21:00N 28°58' W 013°32'0 0.0
2018-May-19 20:30N 28°58' W 013°32'0 0.0
2018-May-19 20:00N 28°58' W 013°32'0 0.0
2018-May-19 19:22N 28°58' W 013°32'0 0.0
2018-May-19 19:00N 28°58' W 013°32'0 0.0
2018-May-19 18:30N 28°58' W 013°32'0 0.1
2018-May-19 18:00N 28°58' W 013°32'2 4.6
2018-May-19 17:30N 28°56' W 013°33'510.5
2018-May-19 17:00N 28°53' W 013°38'610.9
2018-May-19 16:30N 28°50' W 013°43'71 9.9
2018-May-19 09:22N 28°42' W 015°03'4 9.8
2018-May-19 09:00N 28°42' W 015°07'7 9.9
2018-May-19 08:20N 28°41' W 015°15'3 9.8
2018-May-19 08:00N 28°41' W 015°18'5 9.7
2018-May-19 07:30N 28°40' W 015°24'5 9.8
2018-May-19 06:59N 28°40' W 015°30'23 9.4
2018-May-19 04:32N 28°35' W 015°55'1 9.5
2018-May-19 04:24N 28°34' W 015°57'4 9.4
2018-May-19 04:00N 28°32' W 016°00'5 9.5
2018-May-19 03:31N 28°30' W 016°05'5 9.9
2018-May-19 03:00N 28°28' W 016°10'510.2
2018-May-19 02:30N 28°27' W 016°16'0 0.2
2018-May-19 01:42N 28°27' W 016°16'0 0.0
2018-May-19 01:30N 28°27' W 016°16'0 0.0
2018-May-19 01:00N 28°27' W 016°16'0 0.0
2018-May-19 00:30N 28°27' W 016°16'0 0.0
2018-May-18 23:54N 28°27' W 016°16'0 0.0
2018-May-18 23:30N 28°27' W 016°16'0 0.0
2018-May-18 23:00N 28°27' W 016°16'0 0.0
2018-May-18 22:30N 28°27' W 016°16'0 0.0
2018-May-18 22:00N 28°27' W 016°16'0 0.0
2018-May-18 21:00N 28°27' W 016°16'0 0.0
2018-May-18 20:30N 28°27' W 016°16'0 0.0
2018-May-18 14:18N 28°27' W 016°16'0 0.1
2018-May-18 14:01N 28°27' W 016°16'1 3.0
2018-May-18 13:30N 28°27' W 016°14'2 3.5
2018-May-18 13:00N 28°28' W 016°13'1 2.3
2018-May-18 12:30N 28°29' W 016°11'5 9.6
2018-May-18 12:00N 28°31' W 016°07'25 0.5
2018-May-16 12:10N 28°10' W 016°22'210.6
2018-May-16 12:00N 28°11' W 016°21'510.7
2018-May-16 11:30N 28°16' W 016°19'510.8
2018-May-16 11:00N 28°21' W 016°17'510.6
2018-May-16 10:30N 28°26' W 016°14'3 6.8
2018-May-16 10:00N 28°29' W 016°13'0 0.1
2018-May-16 09:30N 28°29' W 016°13'0 0.0
2018-May-16 09:00N 28°29' W 016°13'0 0.0
2018-May-16 08:30N 28°29' W 016°13'0 0.1
2018-May-16 08:00N 28°29' W 016°13'0 0.1
2018-May-16 07:30N 28°29' W 016°13'0 0.0
2018-May-16 07:00N 28°29' W 016°13'0 0.0
2018-May-16 06:30N 28°29' W 016°13'0 0.0
2018-May-16 06:00N 28°29' W 016°13'0 0.0
2018-May-16 05:30N 28°29' W 016°13'0 0.0
2018-May-16 05:00N 28°29' W 016°13'0 0.0
2018-May-16 04:30N 28°29' W 016°13'0 0.0
2018-May-16 04:00N 28°29' W 016°13'0 0.1
2018-May-16 03:30N 28°29' W 016°13'0 0.0
2018-May-16 03:00N 28°29' W 016°13'0 0.0
2018-May-16 02:30N 28°29' W 016°13'0 0.0
2018-May-16 02:00N 28°29' W 016°13'0 0.1
2018-May-16 01:30N 28°29' W 016°13'0 0.1
2018-May-16 01:00N 28°29' W 016°13'0 0.0
2018-May-16 00:30N 28°29' W 016°13'0 0.0
2018-May-16 00:00N 28°29' W 016°13'0 0.0
2018-May-15 23:30N 28°29' W 016°13'0 0.1
2018-May-15 23:00N 28°29' W 016°13'0 0.1
2018-May-15 22:27N 28°29' W 016°13'0 0.1
2018-May-15 22:00N 28°29' W 016°13'0 0.0
2018-May-15 21:30N 28°29' W 016°13'0 0.0
2018-May-15 21:00N 28°29' W 016°13'0 0.0
2018-May-15 20:30N 28°29' W 016°13'0 0.0
2018-May-15 20:00N 28°29' W 016°13'0 0.0
2018-May-15 19:30N 28°29' W 016°13'0 0.0
2018-May-15 19:00N 28°29' W 016°13'0 0.0
2018-May-15 18:30N 28°29' W 016°13'0 0.0
2018-May-15 18:00N 28°29' W 016°13'0 0.0
2018-May-15 17:30N 28°29' W 016°13'0 0.0
2018-May-15 17:00N 28°29' W 016°13'0 0.0
2018-May-15 16:30N 28°29' W 016°13'0 0.0
2018-May-15 16:00N 28°29' W 016°13'0 0.0
2018-May-15 15:30N 28°29' W 016°13'0 0.0
2018-May-15 15:00N 28°29' W 016°13'0 0.0
2018-May-15 14:30N 28°29' W 016°13'0 0.0
2018-May-15 14:00N 28°29' W 016°13'0 0.0
2018-May-15 13:30N 28°29' W 016°13'0 0.0
2018-May-15 13:00N 28°29' W 016°13'0 0.1
2018-May-15 12:30N 28°29' W 016°13'0 0.0
2018-May-15 12:00N 28°29' W 016°13'0 0.0
2018-May-15 11:30N 28°29' W 016°13'0 0.0
2018-May-15 11:00N 28°29' W 016°13'0 0.0
2018-May-15 10:30N 28°29' W 016°13'0 0.0
2018-May-15 10:00N 28°29' W 016°13'0 0.1
2018-May-15 09:30N 28°29' W 016°13'0 0.0
2018-May-15 09:00N 28°29' W 016°13'0 0.0
2018-May-15 08:30N 28°29' W 016°13'0 0.0
2018-May-15 08:00N 28°29' W 016°13'0 0.0
2018-May-15 07:30N 28°29' W 016°13'0 0.0
2018-May-15 07:00N 28°29' W 016°13'0 0.0
2018-May-14 12:36N 28°29' W 016°13'0 0.1
2018-May-14 12:30N 28°29' W 016°13'0 0.0
2018-May-14 11:54N 28°29' W 016°13'0 0.1
2018-May-14 11:30N 28°29' W 016°13'0 0.0
2018-May-14 10:57N 28°29' W 016°13'0 0.0
2018-May-14 10:30N 28°29' W 016°13'0 0.0
2018-May-14 10:00N 28°29' W 016°13'0 0.0
2018-May-14 09:30N 28°29' W 016°13'0 0.0
2018-May-14 09:00N 28°29' W 016°13'0 0.0
2018-May-14 08:30N 28°29' W 016°13'0 0.0
2018-May-14 08:00N 28°29' W 016°13'0 0.0
2018-May-14 07:30N 28°29' W 016°13'0 0.0
2018-May-14 07:00N 28°29' W 016°13'0 0.0
2018-May-14 06:30N 28°29' W 016°13'0 0.0
2018-May-14 06:00N 28°29' W 016°13'0 0.0
2018-May-14 05:30N 28°29' W 016°13'0 0.1
2018-May-14 05:00N 28°29' W 016°13'0 0.0
2018-May-14 04:30N 28°29' W 016°13'0 0.0
2018-May-14 04:00N 28°29' W 016°13'0 0.1
2018-May-14 03:30N 28°29' W 016°13'0 0.0
2018-May-14 03:00N 28°29' W 016°13'0 0.0
2018-May-14 02:30N 28°29' W 016°13'0 0.1
2018-May-14 02:00N 28°29' W 016°13'0 0.0
2018-May-14 01:30N 28°29' W 016°13'0 0.0
2018-May-14 01:00N 28°29' W 016°13'0 0.0
2018-May-14 00:30N 28°29' W 016°13'0 0.0
2018-May-14 00:00N 28°29' W 016°13'0 0.1
2018-May-13 23:30N 28°29' W 016°13'0 0.0
2018-May-13 23:00N 28°29' W 016°13'0 0.0
2018-May-13 22:30N 28°29' W 016°13'0 0.0
2018-May-13 22:00N 28°29' W 016°13'0 0.0
2018-May-13 21:30N 28°29' W 016°13'0 0.0
2018-May-13 21:00N 28°29' W 016°13'0 0.0
2018-May-13 20:30N 28°29' W 016°13'0 0.0
2018-May-13 20:00N 28°29' W 016°13'0 0.0
2018-May-13 19:30N 28°29' W 016°13'0 0.0
2018-May-13 19:00N 28°29' W 016°13'0 0.0
2018-May-13 18:30N 28°29' W 016°13'0 0.1
2018-May-13 18:00N 28°29' W 016°13'0 0.0
2018-May-13 17:30N 28°29' W 016°13'0 0.0
2018-May-13 17:00N 28°29' W 016°13'0 0.0
2018-May-13 16:30N 28°29' W 016°13'0 0.0
2018-May-13 16:00N 28°29' W 016°13'0 0.0
2018-May-13 15:30N 28°29' W 016°13'0 0.0
2018-May-13 15:00N 28°29' W 016°13'0 0.0
2018-May-13 14:30N 28°29' W 016°13'0 0.0
2018-May-13 14:00N 28°29' W 016°13'0 0.1
2018-May-13 13:30N 28°29' W 016°13'0 0.1
2018-May-13 13:00N 28°29' W 016°13'0 0.1
2018-May-13 12:30N 28°29' W 016°13'0 0.0
2018-May-13 12:00N 28°29' W 016°13'0 0.0
2018-May-13 11:30N 28°29' W 016°13'0 0.0
2018-May-13 11:00N 28°29' W 016°13'0 0.0
2018-May-13 10:30N 28°29' W 016°13'0 0.0
2018-May-13 10:00N 28°29' W 016°13'0 0.0
2018-May-13 09:30N 28°29' W 016°13'0 0.1
2018-May-13 09:00N 28°29' W 016°13'0 0.1
2018-May-13 08:30N 28°29' W 016°13'0 0.0
2018-May-13 08:00N 28°29' W 016°13'0 0.0
2018-May-13 07:30N 28°29' W 016°13'0 0.1
2018-May-13 07:00N 28°29' W 016°13'0 0.0
2018-May-13 06:30N 28°29' W 016°13'0 0.0
2018-May-13 06:00N 28°29' W 016°13'0 0.1
2018-May-13 05:30N 28°29' W 016°13'0 0.7
2018-May-13 05:00N 28°29' W 016°13'0 0.0
2018-May-13 04:30N 28°29' W 016°13'0 0.0
2018-May-13 04:00N 28°29' W 016°13'0 0.0
2018-May-13 03:30N 28°29' W 016°13'0 0.0
2018-May-13 03:00N 28°29' W 016°13'0 0.0
2018-May-13 02:30N 28°29' W 016°13'0 0.0
2018-May-13 02:00N 28°29' W 016°13'0 0.0
2018-May-13 01:30N 28°29' W 016°13'0 0.0
2018-May-13 01:00N 28°29' W 016°13'0 0.0
2018-May-13 00:30N 28°29' W 016°13'0 0.0
2018-May-13 00:00N 28°29' W 016°13'0 0.0
2018-May-12 23:30N 28°29' W 016°13'0 0.0
2018-May-12 23:00N 28°29' W 016°13'0 0.0
2018-May-12 22:30N 28°29' W 016°13'0 0.0
2018-May-12 22:00N 28°29' W 016°13'0 0.0
2018-May-12 21:30N 28°29' W 016°13'0 0.0
2018-May-12 21:00N 28°29' W 016°13'0 0.0
2018-May-12 20:30N 28°29' W 016°13'0 0.1
2018-May-12 20:00N 28°29' W 016°13'3 6.3
2018-May-12 19:30N 28°27' W 016°16'0 0.2
2018-May-12 17:26N 28°27' W 016°16'0 0.0
2018-May-12 07:44N 28°27' W 016°16'0 0.0
2018-May-12 07:18N 28°27' W 016°16'0 0.8
2018-May-12 07:00N 28°27' W 016°16'3 6.8
2018-May-12 06:30N 28°29' W 016°12'510.4
2018-May-12 06:00N 28°31' W 016°07'  

Dump ship's entire track history